sensor_id;sensor_type;location;lat;lon;timestamp;P1;durP1;ratioP1;P2;durP2;ratioP2
21430;SDS011;10876;49.038;10.608;2022-08-03T00:01:44;3.33;;;2.78;;
21430;SDS011;10876;49.038;10.608;2022-08-03T00:04:11;3.78;;;2.83;;
21430;SDS011;10876;49.038;10.608;2022-08-03T00:06:38;4.57;;;3.17;;
21430;SDS011;10876;49.038;10.608;2022-08-03T00:09:05;5.65;;;3.00;;
21430;SDS011;10876;49.038;10.608;2022-08-03T00:11:32;3.20;;;2.65;;
21430;SDS011;10876;49.038;10.608;2022-08-03T00:14:00;4.10;;;3.00;;
21430;SDS011;10876;49.038;10.608;2022-08-03T00:16:27;3.78;;;3.05;;
21430;SDS011;10876;49.038;10.608;2022-08-03T00:18:56;4.85;;;3.03;;
21430;SDS011;10876;49.038;10.608;2022-08-03T00:21:23;5.00;;;2.80;;
21430;SDS011;10876;49.038;10.608;2022-08-03T00:23:50;6.95;;;3.00;;
21430;SDS011;10876;49.038;10.608;2022-08-03T00:26:17;5.57;;;3.13;;
21430;SDS011;10876;49.038;10.608;2022-08-03T00:28:44;3.67;;;3.03;;
21430;SDS011;10876;49.038;10.608;2022-08-03T00:31:11;4.20;;;3.00;;
21430;SDS011;10876;49.038;10.608;2022-08-03T00:33:38;3.08;;;2.78;;
21430;SDS011;10876;49.038;10.608;2022-08-03T00:36:07;5.53;;;3.17;;
21430;SDS011;10876;49.038;10.608;2022-08-03T00:38:34;3.72;;;2.92;;
21430;SDS011;10876;49.038;10.608;2022-08-03T00:41:01;3.38;;;2.70;;
21430;SDS011;10876;49.038;10.608;2022-08-03T00:43:28;5.38;;;2.92;;
21430;SDS011;10876;49.038;10.608;2022-08-03T00:45:55;4.18;;;2.92;;
21430;SDS011;10876;49.038;10.608;2022-08-03T00:48:22;4.68;;;3.20;;
21430;SDS011;10876;49.038;10.608;2022-08-03T00:50:50;3.85;;;3.20;;
21430;SDS011;10876;49.038;10.608;2022-08-03T00:53:18;3.50;;;3.10;;
21430;SDS011;10876;49.038;10.608;2022-08-03T00:55:45;6.10;;;3.00;;
21430;SDS011;10876;49.038;10.608;2022-08-03T00:58:12;3.15;;;2.70;;
21430;SDS011;10876;49.038;10.608;2022-08-03T01:00:39;3.05;;;2.70;;
21430;SDS011;10876;49.038;10.608;2022-08-03T01:03:07;3.97;;;2.80;;
21430;SDS011;10876;49.038;10.608;2022-08-03T01:05:37;4.00;;;3.00;;
21430;SDS011;10876;49.038;10.608;2022-08-03T01:08:12;4.53;;;2.83;;
21430;SDS011;10876;49.038;10.608;2022-08-03T01:10:51;3.67;;;2.88;;
21430;SDS011;10876;49.038;10.608;2022-08-03T01:13:35;3.40;;;2.97;;
21430;SDS011;10876;49.038;10.608;2022-08-03T01:16:11;4.85;;;3.40;;
21430;SDS011;10876;49.038;10.608;2022-08-03T01:18:44;4.85;;;2.92;;
21430;SDS011;10876;49.038;10.608;2022-08-03T01:21:19;6.35;;;2.72;;
21430;SDS011;10876;49.038;10.608;2022-08-03T01:24:02;3.97;;;3.28;;
21430;SDS011;10876;49.038;10.608;2022-08-03T01:26:47;5.13;;;3.58;;
21430;SDS011;10876;49.038;10.608;2022-08-03T01:29:36;4.75;;;3.03;;
21430;SDS011;10876;49.038;10.608;2022-08-03T01:32:12;5.43;;;3.47;;
21430;SDS011;10876;49.038;10.608;2022-08-03T01:34:45;3.15;;;2.85;;
21430;SDS011;10876;49.038;10.608;2022-08-03T01:37:18;7.18;;;3.22;;
21430;SDS011;10876;49.038;10.608;2022-08-03T01:39:50;7.53;;;3.33;;
21430;SDS011;10876;49.038;10.608;2022-08-03T01:42:20;5.20;;;3.53;;
21430;SDS011;10876;49.038;10.608;2022-08-03T01:44:51;6.57;;;3.63;;
21430;SDS011;10876;49.038;10.608;2022-08-03T01:47:19;5.20;;;3.55;;
21430;SDS011;10876;49.038;10.608;2022-08-03T01:49:49;4.25;;;3.38;;
21430;SDS011;10876;49.038;10.608;2022-08-03T01:52:17;4.47;;;3.42;;
21430;SDS011;10876;49.038;10.608;2022-08-03T01:54:47;5.25;;;3.70;;
21430;SDS011;10876;49.038;10.608;2022-08-03T01:57:16;4.10;;;3.42;;
21430;SDS011;10876;49.038;10.608;2022-08-03T01:59:46;5.63;;;3.15;;
21430;SDS011;10876;49.038;10.608;2022-08-03T02:02:16;4.28;;;3.17;;
21430;SDS011;10876;49.038;10.608;2022-08-03T02:04:45;5.50;;;3.30;;
21430;SDS011;10876;49.038;10.608;2022-08-03T02:07:13;4.95;;;3.35;;
21430;SDS011;10876;49.038;10.608;2022-08-03T02:09:43;5.05;;;3.85;;
21430;SDS011;10876;49.038;10.608;2022-08-03T02:12:12;6.20;;;3.22;;
21430;SDS011;10876;49.038;10.608;2022-08-03T02:14:40;4.07;;;3.67;;
21430;SDS011;10876;49.038;10.608;2022-08-03T02:17:10;4.70;;;3.63;;
21430;SDS011;10876;49.038;10.608;2022-08-03T02:19:41;5.43;;;3.65;;
21430;SDS011;10876;49.038;10.608;2022-08-03T02:22:10;5.60;;;3.55;;
21430;SDS011;10876;49.038;10.608;2022-08-03T02:24:38;4.43;;;3.20;;
21430;SDS011;10876;49.038;10.608;2022-08-03T02:27:07;3.92;;;3.40;;
21430;SDS011;10876;49.038;10.608;2022-08-03T02:29:42;4.85;;;3.17;;
21430;SDS011;10876;49.038;10.608;2022-08-03T02:32:16;3.60;;;3.20;;
21430;SDS011;10876;49.038;10.608;2022-08-03T02:34:58;5.85;;;3.22;;
21430;SDS011;10876;49.038;10.608;2022-08-03T02:37:27;8.32;;;3.47;;
21430;SDS011;10876;49.038;10.608;2022-08-03T02:39:58;4.15;;;3.55;;
21430;SDS011;10876;49.038;10.608;2022-08-03T02:42:29;4.88;;;3.30;;
21430;SDS011;10876;49.038;10.608;2022-08-03T02:44:57;4.88;;;3.60;;
21430;SDS011;10876;49.038;10.608;2022-08-03T02:47:27;4.82;;;3.72;;
21430;SDS011;10876;49.038;10.608;2022-08-03T05:37:20;8.38;;;4.75;;
21430;SDS011;10876;49.038;10.608;2022-08-03T05:39:46;5.60;;;4.47;;
21430;SDS011;10876;49.038;10.608;2022-08-03T05:42:14;7.97;;;5.30;;
21430;SDS011;10876;49.038;10.608;2022-08-03T05:44:41;8.75;;;5.43;;
21430;SDS011;10876;49.038;10.608;2022-08-03T05:47:10;8.25;;;6.55;;
21430;SDS011;10876;49.038;10.608;2022-08-03T05:49:37;8.45;;;6.13;;
21430;SDS011;10876;49.038;10.608;2022-08-03T05:52:04;7.07;;;5.80;;
21430;SDS011;10876;49.038;10.608;2022-08-03T05:54:32;8.63;;;5.65;;
21430;SDS011;10876;49.038;10.608;2022-08-03T05:57:00;10.10;;;6.22;;
21430;SDS011;10876;49.038;10.608;2022-08-03T05:59:27;9.30;;;6.05;;
21430;SDS011;10876;49.038;10.608;2022-08-03T06:01:54;7.05;;;5.30;;
21430;SDS011;10876;49.038;10.608;2022-08-03T06:04:21;6.55;;;5.25;;
21430;SDS011;10876;49.038;10.608;2022-08-03T06:06:48;11.20;;;5.57;;
21430;SDS011;10876;49.038;10.608;2022-08-03T06:09:15;6.97;;;5.38;;
21430;SDS011;10876;49.038;10.608;2022-08-03T06:11:43;8.00;;;5.55;;
21430;SDS011;10876;49.038;10.608;2022-08-03T06:14:10;6.07;;;4.00;;
21430;SDS011;10876;49.038;10.608;2022-08-03T06:16:37;6.35;;;4.80;;
21430;SDS011;10876;49.038;10.608;2022-08-03T06:19:04;5.82;;;4.75;;
21430;SDS011;10876;49.038;10.608;2022-08-03T06:21:31;8.32;;;4.80;;
21430;SDS011;10876;49.038;10.608;2022-08-03T06:23:58;4.82;;;4.22;;
21430;SDS011;10876;49.038;10.608;2022-08-03T06:26:25;6.32;;;4.43;;
21430;SDS011;10876;49.038;10.608;2022-08-03T06:28:54;4.43;;;4.03;;
21430;SDS011;10876;49.038;10.608;2022-08-03T06:31:22;8.38;;;4.57;;
21430;SDS011;10876;49.038;10.608;2022-08-03T06:33:50;5.85;;;4.15;;
21430;SDS011;10876;49.038;10.608;2022-08-03T06:36:17;5.07;;;4.32;;
21430;SDS011;10876;49.038;10.608;2022-08-03T06:38:44;5.78;;;4.10;;
21430;SDS011;10876;49.038;10.608;2022-08-03T06:41:11;4.53;;;3.70;;
21430;SDS011;10876;49.038;10.608;2022-08-03T06:43:38;4.32;;;3.63;;
21430;SDS011;10876;49.038;10.608;2022-08-03T06:46:06;5.47;;;3.33;;
21430;SDS011;10876;49.038;10.608;2022-08-03T06:48:33;5.93;;;3.90;;
21430;SDS011;10876;49.038;10.608;2022-08-03T06:51:00;3.80;;;3.33;;
21430;SDS011;10876;49.038;10.608;2022-08-03T06:53:27;3.78;;;3.28;;
21430;SDS011;10876;49.038;10.608;2022-08-03T06:55:54;3.83;;;3.03;;
21430;SDS011;10876;49.038;10.608;2022-08-03T06:58:21;6.82;;;3.33;;
21430;SDS011;10876;49.038;10.608;2022-08-03T07:00:48;4.28;;;2.60;;
21430;SDS011;10876;49.038;10.608;2022-08-03T07:03:16;4.05;;;2.70;;
21430;SDS011;10876;49.038;10.608;2022-08-03T07:05:43;4.78;;;3.13;;
21430;SDS011;10876;49.038;10.608;2022-08-03T07:08:11;3.80;;;3.13;;
21430;SDS011;10876;49.038;10.608;2022-08-03T07:10:38;3.58;;;3.03;;
21430;SDS011;10876;49.038;10.608;2022-08-03T07:13:05;4.18;;;2.97;;
21430;SDS011;10876;49.038;10.608;2022-08-03T07:15:33;3.50;;;2.88;;
21430;SDS011;10876;49.038;10.608;2022-08-03T07:18:00;3.67;;;3.00;;
21430;SDS011;10876;49.038;10.608;2022-08-03T07:20:29;4.75;;;2.92;;
21430;SDS011;10876;49.038;10.608;2022-08-03T07:22:56;4.45;;;2.90;;
21430;SDS011;10876;49.038;10.608;2022-08-03T07:25:23;5.65;;;2.65;;
21430;SDS011;10876;49.038;10.608;2022-08-03T07:27:50;2.97;;;2.53;;
21430;SDS011;10876;49.038;10.608;2022-08-03T07:30:17;4.20;;;2.40;;
21430;SDS011;10876;49.038;10.608;2022-08-03T07:32:45;4.43;;;2.20;;
21430;SDS011;10876;49.038;10.608;2022-08-03T07:35:12;3.45;;;2.17;;
21430;SDS011;10876;49.038;10.608;2022-08-03T07:37:41;2.47;;;2.15;;
21430;SDS011;10876;49.038;10.608;2022-08-03T07:40:08;2.33;;;2.10;;
21430;SDS011;10876;49.038;10.608;2022-08-03T07:42:35;2.60;;;2.05;;
21430;SDS011;10876;49.038;10.608;2022-08-03T07:45:02;2.90;;;1.92;;
21430;SDS011;10876;49.038;10.608;2022-08-03T07:47:30;4.88;;;2.03;;
21430;SDS011;10876;49.038;10.608;2022-08-03T07:49:57;1.70;;;1.60;;
21430;SDS011;10876;49.038;10.608;2022-08-03T07:52:24;2.53;;;1.83;;
21430;SDS011;10876;49.038;10.608;2022-08-03T07:55:10;3.42;;;1.80;;
21430;SDS011;10876;49.038;10.608;2022-08-03T07:57:37;2.35;;;2.00;;
21430;SDS011;10876;49.038;10.608;2022-08-03T08:00:11;3.03;;;1.90;;
21430;SDS011;10876;49.038;10.608;2022-08-03T08:02:41;4.57;;;2.00;;
21430;SDS011;10876;49.038;10.608;2022-08-03T08:05:08;5.43;;;1.80;;
21430;SDS011;10876;49.038;10.608;2022-08-03T08:07:35;8.10;;;1.80;;
21430;SDS011;10876;49.038;10.608;2022-08-03T08:10:03;3.72;;;1.83;;
21430;SDS011;10876;49.038;10.608;2022-08-03T08:12:32;4.00;;;1.55;;
21430;SDS011;10876;49.038;10.608;2022-08-03T08:14:59;2.85;;;1.63;;
21430;SDS011;10876;49.038;10.608;2022-08-03T08:17:26;5.60;;;1.75;;
21430;SDS011;10876;49.038;10.608;2022-08-03T08:19:53;3.53;;;1.63;;
21430;SDS011;10876;49.038;10.608;2022-08-03T08:22:20;1.60;;;1.40;;
21430;SDS011;10876;49.038;10.608;2022-08-03T08:24:47;1.48;;;1.38;;
21430;SDS011;10876;49.038;10.608;2022-08-03T08:27:14;1.58;;;1.40;;
21430;SDS011;10876;49.038;10.608;2022-08-03T08:29:42;2.58;;;1.20;;
21430;SDS011;10876;49.038;10.608;2022-08-03T08:32:10;1.27;;;1.10;;
21430;SDS011;10876;49.038;10.608;2022-08-03T08:34:38;3.33;;;1.60;;
21430;SDS011;10876;49.038;10.608;2022-08-03T08:37:05;1.13;;;1.02;;
21430;SDS011;10876;49.038;10.608;2022-08-03T08:39:32;1.65;;;1.13;;
21430;SDS011;10876;49.038;10.608;2022-08-03T08:41:59;1.27;;;0.95;;
21430;SDS011;10876;49.038;10.608;2022-08-03T08:44:27;2.72;;;1.00;;
21430;SDS011;10876;49.038;10.608;2022-08-03T08:46:57;2.72;;;1.17;;
21430;SDS011;10876;49.038;10.608;2022-08-03T08:49:28;0.80;;;0.80;;
21430;SDS011;10876;49.038;10.608;2022-08-03T08:51:55;2.33;;;1.15;;
21430;SDS011;10876;49.038;10.608;2022-08-03T08:54:24;1.02;;;0.90;;
21430;SDS011;10876;49.038;10.608;2022-08-03T08:56:53;2.25;;;0.70;;
21430;SDS011;10876;49.038;10.608;2022-08-03T08:59:26;2.88;;;0.80;;
21430;SDS011;10876;49.038;10.608;2022-08-03T09:01:56;1.05;;;0.80;;
21430;SDS011;10876;49.038;10.608;2022-08-03T09:04:24;1.77;;;0.80;;
21430;SDS011;10876;49.038;10.608;2022-08-03T09:06:51;1.15;;;1.00;;
21430;SDS011;10876;49.038;10.608;2022-08-03T09:09:18;1.17;;;1.00;;
21430;SDS011;10876;49.038;10.608;2022-08-03T09:11:46;1.67;;;0.90;;
21430;SDS011;10876;49.038;10.608;2022-08-03T09:14:14;1.30;;;1.20;;
21430;SDS011;10876;49.038;10.608;2022-08-03T09:16:54;2.38;;;1.10;;
21430;SDS011;10876;49.038;10.608;2022-08-03T09:19:24;1.00;;;0.80;;
21430;SDS011;10876;49.038;10.608;2022-08-03T09:22:06;2.45;;;1.15;;
21430;SDS011;10876;49.038;10.608;2022-08-03T09:24:33;3.25;;;1.40;;
21430;SDS011;10876;49.038;10.608;2022-08-03T09:27:01;1.50;;;1.10;;
21430;SDS011;10876;49.038;10.608;2022-08-03T09:29:31;1.67;;;1.08;;
21430;SDS011;10876;49.038;10.608;2022-08-03T09:31:59;1.13;;;1.00;;
21430;SDS011;10876;49.038;10.608;2022-08-03T09:34:30;2.03;;;1.10;;
21430;SDS011;10876;49.038;10.608;2022-08-03T09:36:57;2.20;;;1.00;;
21430;SDS011;10876;49.038;10.608;2022-08-03T09:39:25;1.30;;;1.20;;
21430;SDS011;10876;49.038;10.608;2022-08-03T09:42:06;2.17;;;1.13;;
21430;SDS011;10876;49.038;10.608;2022-08-03T09:44:34;1.17;;;1.08;;
21430;SDS011;10876;49.038;10.608;2022-08-03T09:47:02;2.75;;;1.05;;
21430;SDS011;10876;49.038;10.608;2022-08-03T09:49:32;5.57;;;1.00;;
21430;SDS011;10876;49.038;10.608;2022-08-03T09:52:00;2.28;;;1.02;;
21430;SDS011;10876;49.038;10.608;2022-08-03T09:54:36;1.20;;;1.10;;
21430;SDS011;10876;49.038;10.608;2022-08-03T09:57:04;1.85;;;1.05;;
21430;SDS011;10876;49.038;10.608;2022-08-03T09:59:31;1.63;;;1.10;;
21430;SDS011;10876;49.038;10.608;2022-08-03T10:01:59;2.28;;;1.17;;
21430;SDS011;10876;49.038;10.608;2022-08-03T10:04:26;1.00;;;0.90;;
21430;SDS011;10876;49.038;10.608;2022-08-03T10:07:02;2.38;;;1.27;;
21430;SDS011;10876;49.038;10.608;2022-08-03T10:09:31;1.25;;;1.13;;
21430;SDS011;10876;49.038;10.608;2022-08-03T10:12:05;1.42;;;1.08;;
21430;SDS011;10876;49.038;10.608;2022-08-03T10:14:35;1.73;;;0.93;;
21430;SDS011;10876;49.038;10.608;2022-08-03T10:17:03;1.42;;;1.10;;
21430;SDS011;10876;49.038;10.608;2022-08-03T10:19:30;1.48;;;1.00;;
21430;SDS011;10876;49.038;10.608;2022-08-03T10:22:00;1.08;;;0.93;;
21430;SDS011;10876;49.038;10.608;2022-08-03T10:24:38;0.88;;;0.88;;
21430;SDS011;10876;49.038;10.608;2022-08-03T10:27:09;1.25;;;0.95;;
21430;SDS011;10876;49.038;10.608;2022-08-03T10:29:41;4.40;;;0.90;;
21430;SDS011;10876;49.038;10.608;2022-08-03T10:32:12;1.52;;;1.00;;
21430;SDS011;10876;49.038;10.608;2022-08-03T10:34:43;2.60;;;0.90;;
21430;SDS011;10876;49.038;10.608;2022-08-03T10:37:13;0.88;;;0.88;;
21430;SDS011;10876;49.038;10.608;2022-08-03T10:39:43;0.95;;;0.85;;
21430;SDS011;10876;49.038;10.608;2022-08-03T10:42:19;0.80;;;0.80;;
21430;SDS011;10876;49.038;10.608;2022-08-03T10:44:49;1.35;;;0.80;;
21430;SDS011;10876;49.038;10.608;2022-08-03T10:47:21;2.00;;;0.90;;
21430;SDS011;10876;49.038;10.608;2022-08-03T10:49:49;1.55;;;1.20;;
21430;SDS011;10876;49.038;10.608;2022-08-03T10:52:18;2.10;;;0.85;;
21430;SDS011;10876;49.038;10.608;2022-08-03T10:54:45;1.75;;;1.00;;
21430;SDS011;10876;49.038;10.608;2022-08-03T10:57:46;1.00;;;0.90;;
21430;SDS011;10876;49.038;10.608;2022-08-03T11:00:17;1.48;;;0.90;;
21430;SDS011;10876;49.038;10.608;2022-08-03T11:03:05;1.33;;;0.85;;
21430;SDS011;10876;49.038;10.608;2022-08-03T11:05:34;0.80;;;0.80;;
21430;SDS011;10876;49.038;10.608;2022-08-03T11:08:24;2.38;;;0.90;;
21430;SDS011;10876;49.038;10.608;2022-08-03T11:10:59;0.82;;;0.82;;
21430;SDS011;10876;49.038;10.608;2022-08-03T11:13:28;1.38;;;0.95;;
21430;SDS011;10876;49.038;10.608;2022-08-03T11:15:59;4.90;;;1.10;;
21430;SDS011;10876;49.038;10.608;2022-08-03T11:18:27;0.82;;;0.82;;
21430;SDS011;10876;49.038;10.608;2022-08-03T11:20:56;0.93;;;0.80;;
21430;SDS011;10876;49.038;10.608;2022-08-03T11:23:43;1.38;;;0.90;;
21430;SDS011;10876;49.038;10.608;2022-08-03T11:26:14;2.67;;;1.00;;
21430;SDS011;10876;49.038;10.608;2022-08-03T11:28:43;1.05;;;0.90;;
21430;SDS011;10876;49.038;10.608;2022-08-03T11:34:13;0.85;;;0.85;;
21430;SDS011;10876;49.038;10.608;2022-08-03T11:39:50;1.77;;;0.77;;
21430;SDS011;10876;49.038;10.608;2022-08-03T11:42:37;3.50;;;0.85;;
21430;SDS011;10876;49.038;10.608;2022-08-03T11:45:12;3.08;;;0.88;;
21430;SDS011;10876;49.038;10.608;2022-08-03T11:47:39;2.95;;;0.80;;
21430;SDS011;10876;49.038;10.608;2022-08-03T11:50:08;1.00;;;0.90;;
21430;SDS011;10876;49.038;10.608;2022-08-03T11:52:37;0.77;;;0.77;;
21430;SDS011;10876;49.038;10.608;2022-08-03T11:55:11;0.70;;;0.70;;
21430;SDS011;10876;49.038;10.608;2022-08-03T11:57:40;1.00;;;0.77;;
21430;SDS011;10876;49.038;10.608;2022-08-03T12:00:20;0.77;;;0.70;;
21430;SDS011;10876;49.038;10.608;2022-08-03T12:02:59;2.63;;;1.10;;
21430;SDS011;10876;49.038;10.608;2022-08-03T12:05:34;1.88;;;0.70;;
21430;SDS011;10876;49.038;10.608;2022-08-03T12:08:06;0.85;;;0.80;;
21430;SDS011;10876;49.038;10.608;2022-08-03T12:10:35;0.80;;;0.80;;
21430;SDS011;10876;49.038;10.608;2022-08-03T12:13:03;1.20;;;0.70;;
21430;SDS011;10876;49.038;10.608;2022-08-03T12:15:33;1.52;;;0.88;;
21430;SDS011;10876;49.038;10.608;2022-08-03T12:18:03;1.13;;;0.90;;
21430;SDS011;10876;49.038;10.608;2022-08-03T12:20:39;1.63;;;0.80;;
21430;SDS011;10876;49.038;10.608;2022-08-03T12:23:09;1.00;;;0.80;;
21430;SDS011;10876;49.038;10.608;2022-08-03T12:25:39;0.70;;;0.70;;
21430;SDS011;10876;49.038;10.608;2022-08-03T12:28:08;3.42;;;0.90;;
21430;SDS011;10876;49.038;10.608;2022-08-03T12:30:40;1.88;;;0.80;;
21430;SDS011;10876;49.038;10.608;2022-08-03T12:33:15;1.23;;;0.90;;
21430;SDS011;10876;49.038;10.608;2022-08-03T12:35:47;0.63;;;0.63;;
21430;SDS011;10876;49.038;10.608;2022-08-03T12:38:19;1.05;;;0.93;;
21430;SDS011;10876;49.038;10.608;2022-08-03T12:40:56;1.10;;;0.70;;
21430;SDS011;10876;49.038;10.608;2022-08-03T12:43:24;0.90;;;0.90;;
21430;SDS011;10876;49.038;10.608;2022-08-03T12:46:05;1.45;;;0.80;;
21430;SDS011;10876;49.038;10.608;2022-08-03T12:48:33;1.23;;;0.90;;
21430;SDS011;10876;49.038;10.608;2022-08-03T12:51:07;0.90;;;0.80;;
21430;SDS011;10876;49.038;10.608;2022-08-03T12:53:35;0.88;;;0.73;;
21430;SDS011;10876;49.038;10.608;2022-08-03T12:56:07;1.42;;;0.68;;
21430;SDS011;10876;49.038;10.608;2022-08-03T12:58:34;0.80;;;0.80;;
21430;SDS011;10876;49.038;10.608;2022-08-03T13:01:02;0.90;;;0.80;;
21430;SDS011;10876;49.038;10.608;2022-08-03T13:03:37;1.08;;;0.90;;
21430;SDS011;10876;49.038;10.608;2022-08-03T13:06:10;1.00;;;0.90;;
21430;SDS011;10876;49.038;10.608;2022-08-03T13:08:38;1.25;;;0.80;;
21430;SDS011;10876;49.038;10.608;2022-08-03T13:11:20;2.47;;;1.60;;
21430;SDS011;10876;49.038;10.608;2022-08-03T13:16:49;1.02;;;0.80;;
21430;SDS011;10876;49.038;10.608;2022-08-03T13:19:17;2.17;;;0.80;;
21430;SDS011;10876;49.038;10.608;2022-08-03T13:21:43;1.27;;;0.63;;
21430;SDS011;10876;49.038;10.608;2022-08-03T13:24:13;1.40;;;0.70;;
21430;SDS011;10876;49.038;10.608;2022-08-03T13:26:41;2.35;;;0.82;;
21430;SDS011;10876;49.038;10.608;2022-08-03T13:29:07;1.17;;;0.80;;
21430;SDS011;10876;49.038;10.608;2022-08-03T13:31:34;3.17;;;0.80;;
21430;SDS011;10876;49.038;10.608;2022-08-03T13:34:01;1.40;;;0.90;;
21430;SDS011;10876;49.038;10.608;2022-08-03T13:36:28;0.70;;;0.70;;
21430;SDS011;10876;49.038;10.608;2022-08-03T13:38:54;1.42;;;1.00;;
21430;SDS011;10876;49.038;10.608;2022-08-03T13:41:21;0.93;;;0.82;;
21430;SDS011;10876;49.038;10.608;2022-08-03T13:44:02;2.95;;;1.00;;
21430;SDS011;10876;49.038;10.608;2022-08-03T13:46:29;1.27;;;0.90;;
21430;SDS011;10876;49.038;10.608;2022-08-03T13:48:56;0.98;;;0.80;;
21430;SDS011;10876;49.038;10.608;2022-08-03T13:51:23;2.35;;;0.80;;
21430;SDS011;10876;49.038;10.608;2022-08-03T13:53:50;1.13;;;0.88;;
21430;SDS011;10876;49.038;10.608;2022-08-03T13:56:17;1.17;;;0.95;;
21430;SDS011;10876;49.038;10.608;2022-08-03T13:58:44;2.05;;;0.95;;
21430;SDS011;10876;49.038;10.608;2022-08-03T14:01:13;0.80;;;0.70;;
21430;SDS011;10876;49.038;10.608;2022-08-03T14:03:40;1.00;;;0.90;;
21430;SDS011;10876;49.038;10.608;2022-08-03T14:06:07;2.08;;;0.88;;
21430;SDS011;10876;49.038;10.608;2022-08-03T14:08:34;3.95;;;0.80;;
21430;SDS011;10876;49.038;10.608;2022-08-03T14:11:01;1.17;;;0.80;;
21430;SDS011;10876;49.038;10.608;2022-08-03T14:13:29;1.25;;;0.90;;
21430;SDS011;10876;49.038;10.608;2022-08-03T14:15:56;2.28;;;0.82;;
21430;SDS011;10876;49.038;10.608;2022-08-03T14:18:24;0.85;;;0.80;;
21430;SDS011;10876;49.038;10.608;2022-08-03T14:20:51;2.78;;;0.90;;
21430;SDS011;10876;49.038;10.608;2022-08-03T14:23:18;0.70;;;0.70;;
21430;SDS011;10876;49.038;10.608;2022-08-03T14:25:45;1.63;;;0.90;;
21430;SDS011;10876;49.038;10.608;2022-08-03T14:28:12;1.45;;;0.70;;
21430;SDS011;10876;49.038;10.608;2022-08-03T14:30:39;1.10;;;0.75;;
21430;SDS011;10876;49.038;10.608;2022-08-03T14:34:14;3.40;;;0.90;;
21430;SDS011;10876;49.038;10.608;2022-08-03T14:36:41;0.80;;;0.80;;
21430;SDS011;10876;49.038;10.608;2022-08-03T14:39:08;0.95;;;0.70;;
21430;SDS011;10876;49.038;10.608;2022-08-03T14:41:35;1.50;;;1.10;;
21430;SDS011;10876;49.038;10.608;2022-08-03T14:44:02;1.52;;;1.00;;
21430;SDS011;10876;49.038;10.608;2022-08-03T14:46:29;0.93;;;0.80;;
21430;SDS011;10876;49.038;10.608;2022-08-03T14:48:57;1.38;;;0.70;;
21430;SDS011;10876;49.038;10.608;2022-08-03T14:51:25;2.28;;;0.90;;
21430;SDS011;10876;49.038;10.608;2022-08-03T14:53:54;0.85;;;0.85;;
21430;SDS011;10876;49.038;10.608;2022-08-03T14:56:20;0.88;;;0.85;;
21430;SDS011;10876;49.038;10.608;2022-08-03T14:59:00;3.58;;;0.90;;
21430;SDS011;10876;49.038;10.608;2022-08-03T15:01:27;1.00;;;0.90;;
21430;SDS011;10876;49.038;10.608;2022-08-03T15:03:54;3.38;;;0.70;;
21430;SDS011;10876;49.038;10.608;2022-08-03T15:06:26;1.77;;;0.80;;
21430;SDS011;10876;49.038;10.608;2022-08-03T15:08:54;0.63;;;0.63;;
21430;SDS011;10876;49.038;10.608;2022-08-03T15:11:21;3.97;;;0.80;;
21430;SDS011;10876;49.038;10.608;2022-08-03T15:13:48;0.98;;;0.90;;
21430;SDS011;10876;49.038;10.608;2022-08-03T15:16:15;2.45;;;0.90;;
21430;SDS011;10876;49.038;10.608;2022-08-03T15:18:43;1.27;;;0.90;;
21430;SDS011;10876;49.038;10.608;2022-08-03T15:21:10;1.77;;;0.90;;
21430;SDS011;10876;49.038;10.608;2022-08-03T15:23:39;0.85;;;0.80;;
21430;SDS011;10876;49.038;10.608;2022-08-03T15:26:06;1.08;;;0.88;;
21430;SDS011;10876;49.038;10.608;2022-08-03T15:28:33;1.85;;;0.98;;
21430;SDS011;10876;49.038;10.608;2022-08-03T15:31:00;3.05;;;1.30;;
21430;SDS011;10876;49.038;10.608;2022-08-03T15:33:27;1.08;;;0.90;;
21430;SDS011;10876;49.038;10.608;2022-08-03T15:35:54;0.80;;;0.80;;
21430;SDS011;10876;49.038;10.608;2022-08-03T15:38:22;1.25;;;0.88;;
21430;SDS011;10876;49.038;10.608;2022-08-03T15:43:32;0.95;;;0.85;;
21430;SDS011;10876;49.038;10.608;2022-08-03T15:46:00;1.00;;;0.80;;
21430;SDS011;10876;49.038;10.608;2022-08-03T15:48:27;1.15;;;0.93;;
21430;SDS011;10876;49.038;10.608;2022-08-03T15:50:54;1.98;;;0.90;;
21430;SDS011;10876;49.038;10.608;2022-08-03T15:53:21;1.00;;;0.75;;
21430;SDS011;10876;49.038;10.608;2022-08-03T15:55:48;2.58;;;1.95;;
21430;SDS011;10876;49.038;10.608;2022-08-03T15:58:16;2.17;;;0.88;;
21430;SDS011;10876;49.038;10.608;2022-08-03T16:00:43;3.17;;;1.05;;
21430;SDS011;10876;49.038;10.608;2022-08-03T16:03:10;1.98;;;0.88;;
21430;SDS011;10876;49.038;10.608;2022-08-03T16:05:37;5.22;;;1.13;;
21430;SDS011;10876;49.038;10.608;2022-08-03T16:08:05;1.83;;;0.95;;
21430;SDS011;10876;49.038;10.608;2022-08-03T16:10:32;2.05;;;0.90;;
21430;SDS011;10876;49.038;10.608;2022-08-03T16:12:59;2.05;;;0.98;;
21430;SDS011;10876;49.038;10.608;2022-08-03T16:15:27;1.30;;;0.85;;
21430;SDS011;10876;49.038;10.608;2022-08-03T16:17:55;0.93;;;0.80;;
21430;SDS011;10876;49.038;10.608;2022-08-03T16:20:22;0.98;;;0.80;;
21430;SDS011;10876;49.038;10.608;2022-08-03T16:22:49;0.95;;;0.90;;
21430;SDS011;10876;49.038;10.608;2022-08-03T16:25:16;1.02;;;0.93;;
21430;SDS011;10876;49.038;10.608;2022-08-03T16:27:43;2.15;;;0.90;;
21430;SDS011;10876;49.038;10.608;2022-08-03T16:30:11;1.50;;;0.90;;
21430;SDS011;10876;49.038;10.608;2022-08-03T16:32:53;0.93;;;0.90;;
21430;SDS011;10876;49.038;10.608;2022-08-03T16:35:22;2.35;;;1.00;;
21430;SDS011;10876;49.038;10.608;2022-08-03T16:37:50;1.00;;;0.82;;
21430;SDS011;10876;49.038;10.608;2022-08-03T16:40:17;1.45;;;0.80;;
21430;SDS011;10876;49.038;10.608;2022-08-03T16:42:45;2.38;;;0.95;;
21430;SDS011;10876;49.038;10.608;2022-08-03T16:45:12;1.77;;;1.00;;
21430;SDS011;10876;49.038;10.608;2022-08-03T16:47:39;1.15;;;0.90;;
21430;SDS011;10876;49.038;10.608;2022-08-03T16:50:08;2.38;;;1.00;;
21430;SDS011;10876;49.038;10.608;2022-08-03T16:52:36;1.98;;;0.80;;
21430;SDS011;10876;49.038;10.608;2022-08-03T16:55:04;1.10;;;0.95;;
21430;SDS011;10876;49.038;10.608;2022-08-03T16:57:34;2.45;;;1.00;;
21430;SDS011;10876;49.038;10.608;2022-08-03T17:00:01;1.50;;;0.90;;
21430;SDS011;10876;49.038;10.608;2022-08-03T17:02:29;1.00;;;0.70;;
21430;SDS011;10876;49.038;10.608;2022-08-03T17:04:56;2.05;;;1.00;;
21430;SDS011;10876;49.038;10.608;2022-08-03T17:07:25;1.38;;;0.90;;
21430;SDS011;10876;49.038;10.608;2022-08-03T17:09:52;0.82;;;0.80;;
21430;SDS011;10876;49.038;10.608;2022-08-03T17:12:21;0.70;;;0.70;;
21430;SDS011;10876;49.038;10.608;2022-08-03T17:14:48;1.20;;;1.00;;
21430;SDS011;10876;49.038;10.608;2022-08-03T17:17:18;2.65;;;1.25;;
21430;SDS011;10876;49.038;10.608;2022-08-03T17:19:50;1.30;;;1.00;;
21430;SDS011;10876;49.038;10.608;2022-08-03T17:22:18;3.05;;;1.25;;
21430;SDS011;10876;49.038;10.608;2022-08-03T17:24:52;1.20;;;1.00;;
21430;SDS011;10876;49.038;10.608;2022-08-03T17:27:20;1.38;;;1.00;;
21430;SDS011;10876;49.038;10.608;2022-08-03T17:29:52;2.35;;;0.90;;
21430;SDS011;10876;49.038;10.608;2022-08-03T17:32:24;1.30;;;1.00;;
21430;SDS011;10876;49.038;10.608;2022-08-03T17:34:54;1.05;;;0.80;;
21430;SDS011;10876;49.038;10.608;2022-08-03T17:37:21;1.70;;;0.80;;
21430;SDS011;10876;49.038;10.608;2022-08-03T17:39:48;2.28;;;1.17;;
21430;SDS011;10876;49.038;10.608;2022-08-03T17:42:17;2.70;;;1.00;;
21430;SDS011;10876;49.038;10.608;2022-08-03T17:44:45;6.18;;;1.20;;
21430;SDS011;10876;49.038;10.608;2022-08-03T17:47:13;1.15;;;1.00;;